sensor_id;sensor_type;location;lat;lon;timestamp;P1;durP1;ratioP1;P2;durP2;ratioP2
72864;SDS011;61000;48.120;11.548;2022-07-29T00:00:12;2.10;;;1.88;;
72864;SDS011;61000;48.120;11.548;2022-07-29T00:02:41;1.63;;;1.52;;
72864;SDS011;61000;48.120;11.548;2022-07-29T00:05:08;2.95;;;1.90;;
72864;SDS011;61000;48.120;11.548;2022-07-29T00:07:38;1.98;;;1.77;;
72864;SDS011;61000;48.120;11.548;2022-07-29T00:10:05;2.85;;;1.98;;
72864;SDS011;61000;48.120;11.548;2022-07-29T00:12:32;3.17;;;1.90;;
72864;SDS011;61000;48.120;11.548;2022-07-29T00:14:59;1.98;;;1.88;;
72864;SDS011;61000;48.120;11.548;2022-07-29T00:17:26;2.00;;;1.80;;
72864;SDS011;61000;48.120;11.548;2022-07-29T00:19:54;2.47;;;2.28;;
72864;SDS011;61000;48.120;11.548;2022-07-29T00:22:21;6.10;;;2.20;;
72864;SDS011;61000;48.120;11.548;2022-07-29T00:24:48;2.10;;;2.00;;
72864;SDS011;61000;48.120;11.548;2022-07-29T00:27:15;2.28;;;2.08;;
72864;SDS011;61000;48.120;11.548;2022-07-29T00:29:42;4.00;;;2.20;;
72864;SDS011;61000;48.120;11.548;2022-07-29T00:32:09;2.28;;;1.90;;
72864;SDS011;61000;48.120;11.548;2022-07-29T00:34:36;1.90;;;1.80;;
72864;SDS011;61000;48.120;11.548;2022-07-29T00:37:22;1.60;;;1.50;;
72864;SDS011;61000;48.120;11.548;2022-07-29T00:39:49;2.65;;;1.70;;
72864;SDS011;61000;48.120;11.548;2022-07-29T00:42:16;2.25;;;1.90;;
72864;SDS011;61000;48.120;11.548;2022-07-29T00:44:43;1.60;;;1.50;;
72864;SDS011;61000;48.120;11.548;2022-07-29T00:47:10;1.92;;;1.77;;
72864;SDS011;61000;48.120;11.548;2022-07-29T00:49:38;2.22;;;1.40;;
72864;SDS011;61000;48.120;11.548;2022-07-29T00:52:06;1.70;;;1.60;;
72864;SDS011;61000;48.120;11.548;2022-07-29T00:54:36;1.65;;;1.50;;
72864;SDS011;61000;48.120;11.548;2022-07-29T00:57:05;1.90;;;1.40;;
72864;SDS011;61000;48.120;11.548;2022-07-29T00:59:32;1.77;;;1.67;;
72864;SDS011;61000;48.120;11.548;2022-07-29T01:01:59;1.55;;;1.45;;
72864;SDS011;61000;48.120;11.548;2022-07-29T01:04:26;2.10;;;2.00;;
72864;SDS011;61000;48.120;11.548;2022-07-29T01:06:54;2.83;;;1.48;;
72864;SDS011;61000;48.120;11.548;2022-07-29T01:09:22;4.25;;;1.70;;
72864;SDS011;61000;48.120;11.548;2022-07-29T01:11:51;1.63;;;1.52;;
72864;SDS011;61000;48.120;11.548;2022-07-29T01:14:18;1.85;;;1.48;;
72864;SDS011;61000;48.120;11.548;2022-07-29T01:16:53;1.48;;;1.38;;
72864;SDS011;61000;48.120;11.548;2022-07-29T01:19:33;2.53;;;1.80;;
72864;SDS011;61000;48.120;11.548;2022-07-29T01:22:18;1.83;;;1.40;;
72864;SDS011;61000;48.120;11.548;2022-07-29T01:25:10;1.38;;;1.27;;
72864;SDS011;61000;48.120;11.548;2022-07-29T01:27:55;1.40;;;1.30;;
72864;SDS011;61000;48.120;11.548;2022-07-29T01:30:40;1.67;;;1.58;;
72864;SDS011;61000;48.120;11.548;2022-07-29T01:33:11;1.80;;;1.30;;
72864;SDS011;61000;48.120;11.548;2022-07-29T01:35:57;1.40;;;1.17;;
72864;SDS011;61000;48.120;11.548;2022-07-29T01:38:27;1.40;;;1.30;;
72864;SDS011;61000;48.120;11.548;2022-07-29T01:40:57;1.30;;;1.20;;
72864;SDS011;61000;48.120;11.548;2022-07-29T01:43:31;1.10;;;1.10;;
72864;SDS011;61000;48.120;11.548;2022-07-29T01:46:07;1.10;;;1.10;;
72864;SDS011;61000;48.120;11.548;2022-07-29T01:48:40;1.30;;;1.20;;
72864;SDS011;61000;48.120;11.548;2022-07-29T01:51:12;1.05;;;1.00;;
72864;SDS011;61000;48.120;11.548;2022-07-29T01:53:46;1.60;;;1.38;;
72864;SDS011;61000;48.120;11.548;2022-07-29T01:56:17;1.63;;;1.10;;
72864;SDS011;61000;48.120;11.548;2022-07-29T01:58:46;1.50;;;1.40;;
72864;SDS011;61000;48.120;11.548;2022-07-29T02:01:15;1.20;;;1.20;;
72864;SDS011;61000;48.120;11.548;2022-07-29T02:03:44;1.67;;;1.10;;
72864;SDS011;61000;48.120;11.548;2022-07-29T02:06:12;1.90;;;1.30;;
72864;SDS011;61000;48.120;11.548;2022-07-29T02:08:46;1.58;;;1.10;;
72864;SDS011;61000;48.120;11.548;2022-07-29T02:11:13;1.75;;;1.30;;
72864;SDS011;61000;48.120;11.548;2022-07-29T02:13:41;1.10;;;1.10;;
72864;SDS011;61000;48.120;11.548;2022-07-29T02:16:09;1.45;;;1.20;;
72864;SDS011;61000;48.120;11.548;2022-07-29T02:18:40;1.30;;;1.20;;
72864;SDS011;61000;48.120;11.548;2022-07-29T02:21:09;1.10;;;1.10;;
72864;SDS011;61000;48.120;11.548;2022-07-29T02:23:38;1.20;;;1.10;;
72864;SDS011;61000;48.120;11.548;2022-07-29T02:26:05;1.50;;;1.40;;
72864;SDS011;61000;48.120;11.548;2022-07-29T02:28:34;1.45;;;1.25;;
72864;SDS011;61000;48.120;11.548;2022-07-29T02:31:02;3.90;;;1.55;;
72864;SDS011;61000;48.120;11.548;2022-07-29T02:33:30;1.35;;;1.25;;
72864;SDS011;61000;48.120;11.548;2022-07-29T02:35:59;1.98;;;1.20;;
72864;SDS011;61000;48.120;11.548;2022-07-29T02:38:27;1.25;;;1.17;;
72864;SDS011;61000;48.120;11.548;2022-07-29T02:41:26;1.42;;;1.23;;
72864;SDS011;61000;48.120;11.548;2022-07-29T02:43:56;2.80;;;1.13;;
72864;SDS011;61000;48.120;11.548;2022-07-29T02:46:27;1.42;;;1.23;;
72864;SDS011;61000;48.120;11.548;2022-07-29T02:48:58;1.50;;;1.40;;
72864;SDS011;61000;48.120;11.548;2022-07-29T02:51:34;1.95;;;1.38;;
72864;SDS011;61000;48.120;11.548;2022-07-29T02:54:07;1.38;;;1.27;;
72864;SDS011;61000;48.120;11.548;2022-07-29T02:56:35;1.40;;;1.30;;
72864;SDS011;61000;48.120;11.548;2022-07-29T02:59:07;1.52;;;1.38;;
72864;SDS011;61000;48.120;11.548;2022-07-29T03:01:38;1.75;;;1.40;;
72864;SDS011;61000;48.120;11.548;2022-07-29T03:04:09;2.13;;;1.20;;
72864;SDS011;61000;48.120;11.548;2022-07-29T03:06:39;1.50;;;1.40;;
72864;SDS011;61000;48.120;11.548;2022-07-29T03:09:07;1.63;;;1.50;;
72864;SDS011;61000;48.120;11.548;2022-07-29T03:11:36;5.35;;;1.88;;
72864;SDS011;61000;48.120;11.548;2022-07-29T03:14:04;2.03;;;1.65;;
72864;SDS011;61000;48.120;11.548;2022-07-29T03:16:32;1.67;;;1.58;;
72864;SDS011;61000;48.120;11.548;2022-07-29T03:19:01;2.75;;;1.45;;
72864;SDS011;61000;48.120;11.548;2022-07-29T03:21:29;1.55;;;1.45;;
72864;SDS011;61000;48.120;11.548;2022-07-29T03:23:57;1.60;;;1.50;;
72864;SDS011;61000;48.120;11.548;2022-07-29T03:26:24;1.60;;;1.42;;
72864;SDS011;61000;48.120;11.548;2022-07-29T03:28:51;2.08;;;1.40;;
72864;SDS011;61000;48.120;11.548;2022-07-29T03:31:18;1.85;;;1.50;;
72864;SDS011;61000;48.120;11.548;2022-07-29T03:33:45;2.63;;;1.70;;
72864;SDS011;61000;48.120;11.548;2022-07-29T03:36:12;3.22;;;1.77;;
72864;SDS011;61000;48.120;11.548;2022-07-29T03:38:39;1.80;;;1.70;;
72864;SDS011;61000;48.120;11.548;2022-07-29T03:41:10;1.30;;;1.20;;
72864;SDS011;61000;48.120;11.548;2022-07-29T03:43:39;2.67;;;1.23;;
72864;SDS011;61000;48.120;11.548;2022-07-29T03:46:08;3.97;;;1.55;;
72864;SDS011;61000;48.120;11.548;2022-07-29T03:48:39;3.17;;;1.40;;
72864;SDS011;61000;48.120;11.548;2022-07-29T03:51:11;3.60;;;1.63;;
72864;SDS011;61000;48.120;11.548;2022-07-29T03:53:39;1.23;;;1.10;;
72864;SDS011;61000;48.120;11.548;2022-07-29T03:56:06;2.15;;;1.50;;
72864;SDS011;61000;48.120;11.548;2022-07-29T03:58:37;1.60;;;1.50;;
72864;SDS011;61000;48.120;11.548;2022-07-29T04:01:04;2.08;;;1.30;;
72864;SDS011;61000;48.120;11.548;2022-07-29T04:03:31;2.38;;;1.52;;
72864;SDS011;61000;48.120;11.548;2022-07-29T04:06:00;2.42;;;1.58;;
72864;SDS011;61000;48.120;11.548;2022-07-29T04:08:28;2.40;;;1.70;;
72864;SDS011;61000;48.120;11.548;2022-07-29T04:10:55;1.52;;;1.42;;
72864;SDS011;61000;48.120;11.548;2022-07-29T04:13:21;1.80;;;1.70;;
72864;SDS011;61000;48.120;11.548;2022-07-29T04:15:50;1.60;;;1.50;;
72864;SDS011;61000;48.120;11.548;2022-07-29T04:18:17;1.92;;;1.60;;
72864;SDS011;61000;48.120;11.548;2022-07-29T04:20:43;2.45;;;1.85;;
72864;SDS011;61000;48.120;11.548;2022-07-29T04:23:10;2.08;;;1.90;;
72864;SDS011;61000;48.120;11.548;2022-07-29T04:25:37;2.33;;;1.90;;
72864;SDS011;61000;48.120;11.548;2022-07-29T04:28:05;2.38;;;1.40;;
72864;SDS011;61000;48.120;11.548;2022-07-29T04:30:33;1.70;;;1.60;;
72864;SDS011;61000;48.120;11.548;2022-07-29T04:33:07;2.00;;;1.80;;
72864;SDS011;61000;48.120;11.548;2022-07-29T04:35:40;3.58;;;1.60;;
72864;SDS011;61000;48.120;11.548;2022-07-29T04:38:07;1.80;;;1.60;;
72864;SDS011;61000;48.120;11.548;2022-07-29T04:40:34;2.40;;;1.38;;
72864;SDS011;61000;48.120;11.548;2022-07-29T04:43:01;2.00;;;1.80;;
72864;SDS011;61000;48.120;11.548;2022-07-29T04:45:28;2.80;;;1.52;;
72864;SDS011;61000;48.120;11.548;2022-07-29T04:47:55;1.63;;;1.52;;
72864;SDS011;61000;48.120;11.548;2022-07-29T04:50:23;1.60;;;1.50;;
72864;SDS011;61000;48.120;11.548;2022-07-29T04:52:50;1.67;;;1.58;;
72864;SDS011;61000;48.120;11.548;2022-07-29T04:55:17;2.83;;;1.45;;
72864;SDS011;61000;48.120;11.548;2022-07-29T04:57:44;2.15;;;1.70;;
72864;SDS011;61000;48.120;11.548;2022-07-29T05:00:11;2.45;;;1.70;;
72864;SDS011;61000;48.120;11.548;2022-07-29T05:02:39;1.67;;;1.58;;
72864;SDS011;61000;48.120;11.548;2022-07-29T05:05:06;1.65;;;1.55;;
72864;SDS011;61000;48.120;11.548;2022-07-29T05:07:34;1.85;;;1.70;;
72864;SDS011;61000;48.120;11.548;2022-07-29T05:10:03;2.45;;;2.10;;
72864;SDS011;61000;48.120;11.548;2022-07-29T05:12:33;8.02;;;2.30;;
72864;SDS011;61000;48.120;11.548;2022-07-29T05:15:00;1.98;;;1.88;;
72864;SDS011;61000;48.120;11.548;2022-07-29T05:17:27;2.08;;;1.70;;
72864;SDS011;61000;48.120;11.548;2022-07-29T05:19:54;3.17;;;1.90;;
72864;SDS011;61000;48.120;11.548;2022-07-29T05:22:21;4.63;;;2.30;;
72864;SDS011;61000;48.120;11.548;2022-07-29T05:24:49;2.72;;;1.63;;
72864;SDS011;61000;48.120;11.548;2022-07-29T05:27:16;2.15;;;1.88;;
72864;SDS011;61000;48.120;11.548;2022-07-29T05:29:43;1.92;;;1.67;;
72864;SDS011;61000;48.120;11.548;2022-07-29T05:32:11;1.85;;;1.70;;
72864;SDS011;61000;48.120;11.548;2022-07-29T05:34:38;3.03;;;2.13;;
72864;SDS011;61000;48.120;11.548;2022-07-29T05:37:05;3.92;;;2.28;;
72864;SDS011;61000;48.120;11.548;2022-07-29T05:39:32;3.95;;;2.17;;
72864;SDS011;61000;48.120;11.548;2022-07-29T05:42:00;3.72;;;2.30;;
72864;SDS011;61000;48.120;11.548;2022-07-29T05:44:27;2.08;;;1.88;;
72864;SDS011;61000;48.120;11.548;2022-07-29T05:46:54;3.53;;;2.13;;
72864;SDS011;61000;48.120;11.548;2022-07-29T05:49:21;2.13;;;1.60;;
72864;SDS011;61000;48.120;11.548;2022-07-29T05:51:48;3.70;;;2.10;;
72864;SDS011;61000;48.120;11.548;2022-07-29T05:54:15;2.10;;;1.80;;
72864;SDS011;61000;48.120;11.548;2022-07-29T05:56:42;2.47;;;1.92;;
72864;SDS011;61000;48.120;11.548;2022-07-29T05:59:10;2.10;;;1.90;;
72864;SDS011;61000;48.120;11.548;2022-07-29T06:01:37;2.35;;;1.80;;
72864;SDS011;61000;48.120;11.548;2022-07-29T06:04:07;3.40;;;2.17;;
72864;SDS011;61000;48.120;11.548;2022-07-29T06:06:34;2.05;;;1.85;;
72864;SDS011;61000;48.120;11.548;2022-07-29T06:09:01;2.10;;;1.70;;
72864;SDS011;61000;48.120;11.548;2022-07-29T06:11:28;2.90;;;2.20;;
72864;SDS011;61000;48.120;11.548;2022-07-29T06:13:55;3.05;;;2.05;;
72864;SDS011;61000;48.120;11.548;2022-07-29T06:16:24;2.50;;;1.90;;
72864;SDS011;61000;48.120;11.548;2022-07-29T06:18:51;2.28;;;2.08;;
72864;SDS011;61000;48.120;11.548;2022-07-29T06:21:18;3.15;;;2.13;;
72864;SDS011;61000;48.120;11.548;2022-07-29T06:23:45;2.45;;;1.83;;
72864;SDS011;61000;48.120;11.548;2022-07-29T06:26:12;2.75;;;2.20;;
72864;SDS011;61000;48.120;11.548;2022-07-29T06:28:39;5.78;;;2.22;;
72864;SDS011;61000;48.120;11.548;2022-07-29T06:31:06;3.03;;;2.13;;
72864;SDS011;61000;48.120;11.548;2022-07-29T06:33:34;3.60;;;2.17;;
72864;SDS011;61000;48.120;11.548;2022-07-29T06:36:03;1.95;;;1.80;;
72864;SDS011;61000;48.120;11.548;2022-07-29T06:38:30;3.25;;;2.30;;
72864;SDS011;61000;48.120;11.548;2022-07-29T06:40:57;3.88;;;2.30;;
72864;SDS011;61000;48.120;11.548;2022-07-29T06:43:27;4.25;;;2.63;;
72864;SDS011;61000;48.120;11.548;2022-07-29T06:45:57;4.65;;;2.25;;
72864;SDS011;61000;48.120;11.548;2022-07-29T06:48:26;2.10;;;1.90;;
72864;SDS011;61000;48.120;11.548;2022-07-29T06:50:55;2.13;;;1.92;;
72864;SDS011;61000;48.120;11.548;2022-07-29T06:53:22;3.40;;;1.95;;
72864;SDS011;61000;48.120;11.548;2022-07-29T06:55:49;6.65;;;2.28;;
72864;SDS011;61000;48.120;11.548;2022-07-29T06:58:16;5.13;;;2.28;;
72864;SDS011;61000;48.120;11.548;2022-07-29T07:00:55;5.38;;;1.98;;
72864;SDS011;61000;48.120;11.548;2022-07-29T07:03:22;3.72;;;2.08;;
72864;SDS011;61000;48.120;11.548;2022-07-29T07:05:51;3.85;;;2.15;;
72864;SDS011;61000;48.120;11.548;2022-07-29T07:08:20;4.18;;;2.33;;
72864;SDS011;61000;48.120;11.548;2022-07-29T07:10:48;2.95;;;2.35;;
72864;SDS011;61000;48.120;11.548;2022-07-29T07:13:15;2.97;;;2.25;;
72864;SDS011;61000;48.120;11.548;2022-07-29T07:15:42;2.42;;;1.88;;
72864;SDS011;61000;48.120;11.548;2022-07-29T07:18:12;1.80;;;1.70;;
72864;SDS011;61000;48.120;11.548;2022-07-29T07:20:40;2.17;;;1.98;;
72864;SDS011;61000;48.120;11.548;2022-07-29T07:23:07;2.42;;;1.70;;
72864;SDS011;61000;48.120;11.548;2022-07-29T07:25:35;4.95;;;1.63;;
72864;SDS011;61000;48.120;11.548;2022-07-29T07:28:03;1.83;;;1.40;;
72864;SDS011;61000;48.120;11.548;2022-07-29T07:30:30;1.52;;;1.42;;
72864;SDS011;61000;48.120;11.548;2022-07-29T07:32:57;1.50;;;1.40;;
72864;SDS011;61000;48.120;11.548;2022-07-29T07:35:24;1.40;;;1.30;;
72864;SDS011;61000;48.120;11.548;2022-07-29T07:37:52;2.42;;;1.48;;
72864;SDS011;61000;48.120;11.548;2022-07-29T07:40:19;2.92;;;1.50;;
72864;SDS011;61000;48.120;11.548;2022-07-29T07:42:47;2.42;;;1.38;;
72864;SDS011;61000;48.120;11.548;2022-07-29T07:45:14;3.50;;;1.40;;
72864;SDS011;61000;48.120;11.548;2022-07-29T07:47:42;1.50;;;1.40;;
72864;SDS011;61000;48.120;11.548;2022-07-29T07:50:09;2.47;;;1.75;;
72864;SDS011;61000;48.120;11.548;2022-07-29T07:52:45;1.63;;;1.42;;
72864;SDS011;61000;48.120;11.548;2022-07-29T07:55:13;1.58;;;1.33;;
72864;SDS011;61000;48.120;11.548;2022-07-29T07:57:42;1.70;;;1.60;;
72864;SDS011;61000;48.120;11.548;2022-07-29T08:00:11;1.75;;;1.60;;
72864;SDS011;61000;48.120;11.548;2022-07-29T08:02:39;2.65;;;1.83;;
72864;SDS011;61000;48.120;11.548;2022-07-29T08:05:07;2.97;;;1.50;;
72864;SDS011;61000;48.120;11.548;2022-07-29T08:07:35;3.53;;;1.30;;
72864;SDS011;61000;48.120;11.548;2022-07-29T08:10:02;1.42;;;1.33;;
72864;SDS011;61000;48.120;11.548;2022-07-29T08:12:30;1.45;;;1.33;;
72864;SDS011;61000;48.120;11.548;2022-07-29T08:14:57;3.55;;;1.17;;
72864;SDS011;61000;48.120;11.548;2022-07-29T08:17:26;1.92;;;1.50;;
72864;SDS011;61000;48.120;11.548;2022-07-29T08:19:53;3.17;;;1.70;;
72864;SDS011;61000;48.120;11.548;2022-07-29T08:22:20;3.65;;;1.60;;
72864;SDS011;61000;48.120;11.548;2022-07-29T08:24:47;3.08;;;1.70;;
72864;SDS011;61000;48.120;11.548;2022-07-29T08:27:19;1.50;;;1.40;;
72864;SDS011;61000;48.120;11.548;2022-07-29T08:29:46;1.63;;;1.52;;
72864;SDS011;61000;48.120;11.548;2022-07-29T08:32:13;2.03;;;1.75;;
72864;SDS011;61000;48.120;11.548;2022-07-29T08:34:42;2.30;;;1.67;;
72864;SDS011;61000;48.120;11.548;2022-07-29T08:37:11;1.63;;;1.50;;
72864;SDS011;61000;48.120;11.548;2022-07-29T08:39:38;2.15;;;1.65;;
72864;SDS011;61000;48.120;11.548;2022-07-29T08:42:06;1.80;;;1.70;;
72864;SDS011;61000;48.120;11.548;2022-07-29T08:44:34;3.15;;;1.70;;
72864;SDS011;61000;48.120;11.548;2022-07-29T08:47:02;1.92;;;1.52;;
72864;SDS011;61000;48.120;11.548;2022-07-29T08:49:30;3.03;;;1.88;;
72864;SDS011;61000;48.120;11.548;2022-07-29T08:51:58;1.70;;;1.60;;
72864;SDS011;61000;48.120;11.548;2022-07-29T08:54:26;2.15;;;1.77;;
72864;SDS011;61000;48.120;11.548;2022-07-29T08:56:54;1.50;;;1.40;;
72864;SDS011;61000;48.120;11.548;2022-07-29T08:59:22;1.85;;;1.63;;
72864;SDS011;61000;48.120;11.548;2022-07-29T09:01:52;1.40;;;1.30;;
72864;SDS011;61000;48.120;11.548;2022-07-29T09:04:20;1.75;;;1.65;;
72864;SDS011;61000;48.120;11.548;2022-07-29T09:06:51;2.70;;;1.92;;
72864;SDS011;61000;48.120;11.548;2022-07-29T09:09:21;1.83;;;1.73;;
72864;SDS011;61000;48.120;11.548;2022-07-29T09:11:48;3.15;;;1.70;;
72864;SDS011;61000;48.120;11.548;2022-07-29T09:14:16;2.15;;;1.77;;
72864;SDS011;61000;48.120;11.548;2022-07-29T09:16:43;2.80;;;1.85;;
72864;SDS011;61000;48.120;11.548;2022-07-29T09:19:24;3.30;;;1.98;;
72864;SDS011;61000;48.120;11.548;2022-07-29T09:21:53;2.28;;;2.00;;
72864;SDS011;61000;48.120;11.548;2022-07-29T09:24:24;2.45;;;1.73;;
72864;SDS011;61000;48.120;11.548;2022-07-29T09:27:21;2.25;;;1.70;;
72864;SDS011;61000;48.120;11.548;2022-07-29T09:29:57;3.35;;;1.75;;
72864;SDS011;61000;48.120;11.548;2022-07-29T09:32:25;4.15;;;1.50;;
72864;SDS011;61000;48.120;11.548;2022-07-29T09:37:41;1.45;;;1.35;;
72864;SDS011;61000;48.120;11.548;2022-07-29T09:40:13;3.85;;;1.80;;
72864;SDS011;61000;48.120;11.548;2022-07-29T09:42:42;1.88;;;1.77;;
72864;SDS011;61000;48.120;11.548;2022-07-29T09:45:09;3.10;;;1.88;;
72864;SDS011;61000;48.120;11.548;2022-07-29T09:47:41;2.50;;;1.65;;
72864;SDS011;61000;48.120;11.548;2022-07-29T09:50:10;2.53;;;1.70;;
72864;SDS011;61000;48.120;11.548;2022-07-29T09:52:44;2.22;;;2.00;;
72864;SDS011;61000;48.120;11.548;2022-07-29T09:55:14;1.88;;;1.77;;
72864;SDS011;61000;48.120;11.548;2022-07-29T09:57:41;3.47;;;1.92;;
72864;SDS011;61000;48.120;11.548;2022-07-29T10:00:09;2.30;;;2.10;;
72864;SDS011;61000;48.120;11.548;2022-07-29T10:02:39;2.50;;;2.30;;
72864;SDS011;61000;48.120;11.548;2022-07-29T10:05:15;1.98;;;1.88;;
72864;SDS011;61000;48.120;11.548;2022-07-29T10:07:45;4.00;;;2.10;;
72864;SDS011;61000;48.120;11.548;2022-07-29T10:10:19;2.45;;;2.25;;
72864;SDS011;61000;48.120;11.548;2022-07-29T10:12:54;4.63;;;2.70;;
72864;SDS011;61000;48.120;11.548;2022-07-29T10:15:25;4.88;;;2.45;;
72864;SDS011;61000;48.120;11.548;2022-07-29T10:17:55;2.60;;;2.40;;
72864;SDS011;61000;48.120;11.548;2022-07-29T10:20:22;4.10;;;2.08;;
72864;SDS011;61000;48.120;11.548;2022-07-29T10:22:52;4.28;;;2.22;;
72864;SDS011;61000;48.120;11.548;2022-07-29T10:25:22;3.28;;;2.30;;
72864;SDS011;61000;48.120;11.548;2022-07-29T10:27:50;2.60;;;2.20;;
72864;SDS011;61000;48.120;11.548;2022-07-29T10:30:18;2.72;;;2.50;;
72864;SDS011;61000;48.120;11.548;2022-07-29T10:35:54;4.22;;;2.33;;
72864;SDS011;61000;48.120;11.548;2022-07-29T10:38:41;3.85;;;2.28;;
72864;SDS011;61000;48.120;11.548;2022-07-29T10:41:28;3.17;;;2.40;;
72864;SDS011;61000;48.120;11.548;2022-07-29T10:44:03;2.83;;;2.53;;
72864;SDS011;61000;48.120;11.548;2022-07-29T10:46:34;3.88;;;2.50;;
72864;SDS011;61000;48.120;11.548;2022-07-29T10:49:06;3.22;;;2.53;;
72864;SDS011;61000;48.120;11.548;2022-07-29T10:51:56;5.00;;;2.72;;
72864;SDS011;61000;48.120;11.548;2022-07-29T10:54:40;3.40;;;2.25;;
72864;SDS011;61000;48.120;11.548;2022-07-29T10:57:27;4.40;;;2.20;;
72864;SDS011;61000;48.120;11.548;2022-07-29T11:02:57;4.65;;;2.58;;
72864;SDS011;61000;48.120;11.548;2022-07-29T11:05:26;2.70;;;2.10;;
72864;SDS011;61000;48.120;11.548;2022-07-29T11:10:49;3.15;;;2.50;;
72864;SDS011;61000;48.120;11.548;2022-07-29T11:19:24;4.32;;;1.95;;
72864;SDS011;61000;48.120;11.548;2022-07-29T11:21:51;3.58;;;1.90;;
72864;SDS011;61000;48.120;11.548;2022-07-29T11:24:19;3.30;;;2.08;;
72864;SDS011;61000;48.120;11.548;2022-07-29T11:29:54;2.60;;;2.40;;
72864;SDS011;61000;48.120;11.548;2022-07-29T11:32:23;2.00;;;1.90;;
72864;SDS011;61000;48.120;11.548;2022-07-29T11:37:45;4.53;;;2.28;;
72864;SDS011;61000;48.120;11.548;2022-07-29T11:40:14;3.50;;;2.13;;
72864;SDS011;61000;48.120;11.548;2022-07-29T11:42:44;5.10;;;2.20;;
72864;SDS011;61000;48.120;11.548;2022-07-29T11:45:23;2.45;;;2.20;;
72864;SDS011;61000;48.120;11.548;2022-07-29T11:47:58;2.58;;;2.33;;
72864;SDS011;61000;48.120;11.548;2022-07-29T11:50:30;3.33;;;3.03;;
72864;SDS011;61000;48.120;11.548;2022-07-29T11:53:02;3.63;;;3.22;;
72864;SDS011;61000;48.120;11.548;2022-07-29T11:55:35;3.35;;;2.45;;
72864;SDS011;61000;48.120;11.548;2022-07-29T11:58:04;3.80;;;2.20;;
72864;SDS011;61000;48.120;11.548;2022-07-29T12:00:33;3.53;;;2.10;;
72864;SDS011;61000;48.120;11.548;2022-07-29T12:03:04;2.55;;;2.17;;
72864;SDS011;61000;48.120;11.548;2022-07-29T12:05:34;3.85;;;2.13;;
72864;SDS011;61000;48.120;11.548;2022-07-29T12:08:04;3.88;;;2.42;;
72864;SDS011;61000;48.120;11.548;2022-07-29T12:10:36;3.75;;;2.17;;
72864;SDS011;61000;48.120;11.548;2022-07-29T12:13:03;3.25;;;2.33;;
72864;SDS011;61000;48.120;11.548;2022-07-29T12:15:30;3.22;;;2.20;;
72864;SDS011;61000;48.120;11.548;2022-07-29T12:17:59;3.38;;;2.08;;
72864;SDS011;61000;48.120;11.548;2022-07-29T12:20:36;3.30;;;2.03;;
72864;SDS011;61000;48.120;11.548;2022-07-29T12:23:04;4.90;;;2.10;;
72864;SDS011;61000;48.120;11.548;2022-07-29T12:25:33;5.95;;;2.50;;
72864;SDS011;61000;48.120;11.548;2022-07-29T12:28:01;2.90;;;2.40;;
72864;SDS011;61000;48.120;11.548;2022-07-29T12:30:41;6.28;;;2.22;;
72864;SDS011;61000;48.120;11.548;2022-07-29T12:33:11;4.15;;;2.10;;
72864;SDS011;61000;48.120;11.548;2022-07-29T12:35:39;2.20;;;2.00;;
72864;SDS011;61000;48.120;11.548;2022-07-29T12:38:09;3.60;;;2.10;;
72864;SDS011;61000;48.120;11.548;2022-07-29T12:40:37;2.28;;;2.13;;
72864;SDS011;61000;48.120;11.548;2022-07-29T12:43:05;3.15;;;2.05;;
72864;SDS011;61000;48.120;11.548;2022-07-29T12:45:34;2.42;;;2.22;;
72864;SDS011;61000;48.120;11.548;2022-07-29T12:48:03;5.55;;;2.20;;
72864;SDS011;61000;48.120;11.548;2022-07-29T12:50:33;5.07;;;2.35;;
72864;SDS011;61000;48.120;11.548;2022-07-29T12:53:10;2.90;;;2.15;;
72864;SDS011;61000;48.120;11.548;2022-07-29T12:55:39;2.30;;;2.10;;
72864;SDS011;61000;48.120;11.548;2022-07-29T12:58:13;4.43;;;2.30;;
72864;SDS011;61000;48.120;11.548;2022-07-29T13:00:58;3.70;;;2.22;;
72864;SDS011;61000;48.120;11.548;2022-07-29T13:03:47;2.83;;;1.85;;
72864;SDS011;61000;48.120;11.548;2022-07-29T13:06:38;6.70;;;2.03;;
72864;SDS011;61000;48.120;11.548;2022-07-29T13:09:08;4.80;;;2.30;;
72864;SDS011;61000;48.120;11.548;2022-07-29T13:11:37;3.53;;;2.58;;
72864;SDS011;61000;48.120;11.548;2022-07-29T13:14:07;2.90;;;2.30;;
72864;SDS011;61000;48.120;11.548;2022-07-29T13:16:35;2.55;;;2.35;;
72864;SDS011;61000;48.120;11.548;2022-07-29T13:19:08;2.92;;;2.50;;
72864;SDS011;61000;48.120;11.548;2022-07-29T13:21:37;3.20;;;2.40;;
72864;SDS011;61000;48.120;11.548;2022-07-29T13:24:06;3.72;;;2.60;;
72864;SDS011;61000;48.120;11.548;2022-07-29T13:26:39;2.70;;;2.50;;
72864;SDS011;61000;48.120;11.548;2022-07-29T13:29:06;3.63;;;2.33;;
72864;SDS011;61000;48.120;11.548;2022-07-29T13:31:34;3.35;;;2.85;;
72864;SDS011;61000;48.120;11.548;2022-07-29T13:34:07;5.07;;;2.53;;
72864;SDS011;61000;48.120;11.548;2022-07-29T13:36:36;2.70;;;2.45;;
72864;SDS011;61000;48.120;11.548;2022-07-29T13:39:03;4.13;;;2.42;;
72864;SDS011;61000;48.120;11.548;2022-07-29T13:41:30;2.42;;;2.30;;
72864;SDS011;61000;48.120;11.548;2022-07-29T13:43:57;4.78;;;2.70;;
72864;SDS011;61000;48.120;11.548;2022-07-29T13:46:26;8.35;;;2.95;;
72864;SDS011;61000;48.120;11.548;2022-07-29T13:48:53;4.40;;;2.50;;
72864;SDS011;61000;48.120;11.548;2022-07-29T13:51:22;5.88;;;2.70;;
72864;SDS011;61000;48.120;11.548;2022-07-29T13:53:49;3.25;;;2.33;;
72864;SDS011;61000;48.120;11.548;2022-07-29T13:56:18;2.75;;;2.55;;
72864;SDS011;61000;48.120;11.548;2022-07-29T13:58:46;4.43;;;2.90;;
72864;SDS011;61000;48.120;11.548;2022-07-29T14:01:13;2.80;;;2.60;;
72864;SDS011;61000;48.120;11.548;2022-07-29T14:03:40;5.55;;;2.28;;
72864;SDS011;61000;48.120;11.548;2022-07-29T14:06:08;4.05;;;2.63;;
72864;SDS011;61000;48.120;11.548;2022-07-29T14:08:36;4.93;;;2.45;;
72864;SDS011;61000;48.120;11.548;2022-07-29T14:11:03;2.40;;;2.20;;
72864;SDS011;61000;48.120;11.548;2022-07-29T14:13:30;2.45;;;2.25;;
72864;SDS011;61000;48.120;11.548;2022-07-29T14:15:57;4.00;;;2.40;;
72864;SDS011;61000;48.120;11.548;2022-07-29T14:18:24;4.78;;;2.28;;
72864;SDS011;61000;48.120;11.548;2022-07-29T14:20:51;2.25;;;2.00;;
72864;SDS011;61000;48.120;11.548;2022-07-29T14:23:18;2.67;;;2.20;;
72864;SDS011;61000;48.120;11.548;2022-07-29T14:25:46;3.63;;;2.13;;
72864;SDS011;61000;48.120;11.548;2022-07-29T14:28:13;2.92;;;2.28;;
72864;SDS011;61000;48.120;11.548;2022-07-29T14:30:40;3.95;;;2.10;;
72864;SDS011;61000;48.120;11.548;2022-07-29T14:33:07;5.75;;;2.53;;
72864;SDS011;61000;48.120;11.548;2022-07-29T14:35:34;4.22;;;1.98;;
72864;SDS011;61000;48.120;11.548;2022-07-29T14:38:01;2.15;;;2.00;;
72864;SDS011;61000;48.120;11.548;2022-07-29T14:40:28;3.42;;;2.25;;
72864;SDS011;61000;48.120;11.548;2022-07-29T14:42:56;4.10;;;2.40;;
72864;SDS011;61000;48.120;11.548;2022-07-29T14:45:23;2.70;;;1.90;;
72864;SDS011;61000;48.120;11.548;2022-07-29T14:47:50;5.93;;;2.80;;
72864;SDS011;61000;48.120;11.548;2022-07-29T14:50:17;3.17;;;2.47;;
72864;SDS011;61000;48.120;11.548;2022-07-29T14:52:44;4.40;;;2.30;;
72864;SDS011;61000;48.120;11.548;2022-07-29T14:55:11;2.17;;;1.98;;
72864;SDS011;61000;48.120;11.548;2022-07-29T14:57:38;3.30;;;2.13;;
72864;SDS011;61000;48.120;11.548;2022-07-29T15:00:07;2.30;;;2.10;;
72864;SDS011;61000;48.120;11.548;2022-07-29T15:02:35;2.63;;;2.30;;
72864;SDS011;61000;48.120;11.548;2022-07-29T15:05:02;3.08;;;2.25;;
72864;SDS011;61000;48.120;11.548;2022-07-29T15:07:30;2.47;;;2.17;;
72864;SDS011;61000;48.120;11.548;2022-07-29T15:09:57;2.53;;;2.25;;